createdAt,value
2018-12-31T00:01:43.293Z,12.17
2018-12-31T00:04:12.134Z,11.93
2018-12-31T00:06:41.410Z,10.67
2018-12-31T00:09:10.290Z,13.80
2018-12-31T00:11:39.215Z,12.40
2018-12-31T00:14:08.062Z,13.67
2018-12-31T00:16:37.093Z,13.47
2018-12-31T00:19:06.272Z,13.17
2018-12-31T00:21:35.303Z,12.13
2018-12-31T00:24:04.284Z,12.83
2018-12-31T00:26:33.335Z,15.30
2018-12-31T00:29:02.208Z,18.13
2018-12-31T00:31:31.122Z,15.60
2018-12-31T00:33:59.956Z,15.13
2018-12-31T00:36:28.905Z,17.00
2018-12-31T00:38:57.821Z,16.20
2018-12-31T00:41:26.955Z,15.43
2018-12-31T00:43:56.295Z,14.30
2018-12-31T00:46:25.462Z,16.17
2018-12-31T00:48:54.697Z,15.57
2018-12-31T00:51:23.982Z,13.63
2018-12-31T00:53:53.126Z,13.43
2018-12-31T00:56:22.014Z,14.17
2018-12-31T00:58:51.047Z,12.80
2018-12-31T01:01:20.149Z,13.73
2018-12-31T01:03:48.965Z,13.10
2018-12-31T01:06:17.961Z,11.73
2018-12-31T01:08:46.844Z,13.40
2018-12-31T01:11:15.863Z,12.47
2018-12-31T01:13:44.718Z,12.43
2018-12-31T01:16:13.784Z,14.03
2018-12-31T01:18:42.656Z,14.70
2018-12-31T01:21:11.676Z,13.90
2018-12-31T01:23:40.659Z,13.67
2018-12-31T01:26:09.594Z,14.57
2018-12-31T01:28:38.468Z,12.60
2018-12-31T01:31:07.396Z,13.90
2018-12-31T01:33:36.166Z,15.37
2018-12-31T01:36:05.014Z,13.87
2018-12-31T01:38:33.934Z,14.70
2018-12-31T01:41:02.890Z,14.50
2018-12-31T01:43:31.777Z,15.93
2018-12-31T01:46:00.754Z,16.10
2018-12-31T01:48:29.777Z,14.37
2018-12-31T01:50:58.663Z,16.03
2018-12-31T01:53:30.088Z,13.47
2018-12-31T01:55:58.968Z,14.43
2018-12-31T01:58:28.025Z,14.00
2018-12-31T02:00:56.993Z,15.20
2018-12-31T02:03:25.985Z,12.80
2018-12-31T02:05:55.032Z,16.27
2018-12-31T02:08:24.023Z,13.93
2018-12-31T02:10:53.074Z,14.20
2018-12-31T02:13:22.156Z,15.23
2018-12-31T02:15:51.172Z,15.27
2018-12-31T02:18:20.295Z,14.40
2018-12-31T02:20:49.353Z,13.47
2018-12-31T02:23:18.428Z,14.13
2018-12-31T02:25:47.425Z,13.97
2018-12-31T02:28:16.470Z,14.80
2018-12-31T02:30:45.554Z,13.83
2018-12-31T02:33:14.631Z,14.77
2018-12-31T02:35:43.603Z,14.63
2018-12-31T02:38:12.611Z,14.60
2018-12-31T02:40:41.643Z,13.80
2018-12-31T02:43:10.586Z,14.50
2018-12-31T02:45:39.500Z,13.63
2018-12-31T02:48:08.520Z,14.23
2018-12-31T02:50:37.489Z,15.20
2018-12-31T02:53:06.402Z,18.20
2018-12-31T02:55:35.401Z,13.50
2018-12-31T02:58:04.366Z,14.80
2018-12-31T03:00:33.622Z,13.57
2018-12-31T03:03:02.533Z,13.90
2018-12-31T03:05:31.381Z,13.13
2018-12-31T03:08:00.548Z,14.70
2018-12-31T03:10:29.761Z,14.03
2018-12-31T03:12:58.671Z,13.07
2018-12-31T03:15:27.751Z,13.83
2018-12-31T03:17:56.631Z,13.00
2018-12-31T03:20:25.586Z,12.43
2018-12-31T03:22:54.521Z,14.70
2018-12-31T03:25:23.542Z,14.00
2018-12-31T03:27:52.493Z,13.10
2018-12-31T03:30:21.462Z,14.77
2018-12-31T03:32:50.524Z,12.77
2018-12-31T03:35:19.598Z,14.33
2018-12-31T03:37:48.611Z,13.70
2018-12-31T03:40:17.512Z,13.10
2018-12-31T03:42:46.650Z,12.00
2018-12-31T03:45:15.820Z,13.20
2018-12-31T03:47:44.710Z,12.20
2018-12-31T03:50:13.656Z,13.13
2018-12-31T03:52:42.608Z,12.50
2018-12-31T03:55:11.679Z,12.80
2018-12-31T03:57:40.731Z,12.00
2018-12-31T04:00:09.633Z,12.23
2018-12-31T04:02:38.531Z,13.77
2018-12-31T04:05:07.500Z,13.10
2018-12-31T04:07:36.478Z,12.20
2018-12-31T04:10:05.451Z,13.80
2018-12-31T04:12:34.522Z,14.17
2018-12-31T04:15:03.461Z,14.90
2018-12-31T04:17:32.421Z,15.30
2018-12-31T04:20:01.363Z,13.60
2018-12-31T04:22:30.317Z,14.67
2018-12-31T04:24:59.161Z,17.33
2018-12-31T04:27:28.051Z,16.53
2018-12-31T04:29:56.916Z,14.60
2018-12-31T04:32:28.926Z,14.90
2018-12-31T04:34:57.993Z,14.07
2018-12-31T04:37:26.895Z,13.47
2018-12-31T04:39:55.860Z,15.90
2018-12-31T04:42:24.801Z,14.80
2018-12-31T04:44:53.698Z,13.70
2018-12-31T04:47:22.628Z,12.80
2018-12-31T04:49:51.674Z,15.13
2018-12-31T04:52:20.697Z,13.90
2018-12-31T04:54:49.656Z,14.47
2018-12-31T04:57:18.628Z,14.13
2018-12-31T04:59:47.649Z,15.10
2018-12-31T05:02:16.617Z,12.93
2018-12-31T05:04:45.681Z,13.43
2018-12-31T05:07:14.621Z,13.57
2018-12-31T05:09:43.654Z,14.03
2018-12-31T05:12:12.761Z,13.73
2018-12-31T05:14:41.861Z,14.30
2018-12-31T05:17:10.765Z,13.53
2018-12-31T05:19:39.781Z,13.50
2018-12-31T05:22:08.671Z,14.00
2018-12-31T05:24:37.582Z,13.87
2018-12-31T05:27:06.604Z,13.90
2018-12-31T05:29:35.640Z,14.20
2018-12-31T05:32:04.541Z,12.57
2018-12-31T05:34:33.611Z,13.10
2018-12-31T05:37:02.591Z,12.70
2018-12-31T05:39:31.460Z,12.73
2018-12-31T05:42:00.464Z,13.20
2018-12-31T05:44:29.471Z,11.20
2018-12-31T05:46:58.476Z,13.10
2018-12-31T05:49:27.482Z,13.93
2018-12-31T05:51:56.492Z,13.70
2018-12-31T05:54:25.504Z,13.40
2018-12-31T05:56:54.753Z,13.87
2018-12-31T05:59:23.670Z,13.00
2018-12-31T06:01:52.661Z,13.90
2018-12-31T06:04:21.711Z,15.20
2018-12-31T06:06:50.733Z,14.03
2018-12-31T06:09:19.599Z,14.30
2018-12-31T06:11:48.490Z,14.10
2018-12-31T06:14:17.389Z,13.40
2018-12-31T06:16:46.298Z,13.20
2018-12-31T06:19:15.249Z,13.60
2018-12-31T06:21:44.177Z,13.67
2018-12-31T06:24:13.043Z,13.20
2018-12-31T06:26:41.952Z,13.00
2018-12-31T06:29:10.859Z,13.07
2018-12-31T06:31:39.829Z,11.20
2018-12-31T06:34:08.735Z,11.63
2018-12-31T06:36:37.764Z,11.53
2018-12-31T06:39:08.269Z,11.50
2018-12-31T06:41:37.276Z,11.93
2018-12-31T06:44:06.185Z,11.47
2018-12-31T06:46:35.141Z,11.87
2018-12-31T06:49:04.055Z,11.70
2018-12-31T06:51:33.119Z,13.10
2018-12-31T06:54:02.017Z,12.77
2018-12-31T06:56:30.881Z,14.87
2018-12-31T06:59:00.523Z,13.43
2018-12-31T07:01:29.518Z,13.03
2018-12-31T07:03:58.330Z,14.03
2018-12-31T07:06:27.330Z,13.63
2018-12-31T07:08:56.360Z,14.13
2018-12-31T07:11:25.388Z,12.50
2018-12-31T07:13:54.269Z,12.00
2018-12-31T07:16:23.275Z,12.80
2018-12-31T07:18:52.357Z,12.53
2018-12-31T07:21:21.296Z,14.63
2018-12-31T07:23:50.339Z,13.80
2018-12-31T07:26:19.361Z,13.97
2018-12-31T07:28:48.279Z,14.30
2018-12-31T07:31:17.241Z,14.17
2018-12-31T07:33:46.231Z,14.90
2018-12-31T07:36:15.210Z,13.57
2018-12-31T07:38:44.163Z,13.80
2018-12-31T07:41:13.170Z,15.73
2018-12-31T07:43:42.129Z,15.33
2018-12-31T07:46:11.133Z,13.90
2018-12-31T07:48:40.085Z,15.10
2018-12-31T07:51:09.013Z,14.23
2018-12-31T07:53:38.815Z,13.80
2018-12-31T07:56:07.951Z,14.60
2018-12-31T07:58:36.903Z,16.10
2018-12-31T08:01:05.738Z,15.87
2018-12-31T08:03:34.716Z,15.20
2018-12-31T08:06:03.835Z,17.97
2018-12-31T08:08:32.698Z,17.53
2018-12-31T08:11:01.648Z,15.20
2018-12-31T08:13:30.590Z,15.47
2018-12-31T08:15:59.438Z,15.50
2018-12-31T08:18:28.375Z,14.57
2018-12-31T08:20:57.295Z,15.53
2018-12-31T08:23:26.281Z,15.13
2018-12-31T08:25:55.332Z,14.13
2018-12-31T08:28:24.351Z,16.20
2018-12-31T08:30:55.503Z,15.90
2018-12-31T08:33:24.459Z,15.67
2018-12-31T08:35:53.482Z,17.90
2018-12-31T08:38:22.264Z,18.07
2018-12-31T08:40:51.144Z,15.73
2018-12-31T08:43:20.078Z,18.20
2018-12-31T08:45:49.030Z,16.10
2018-12-31T08:48:17.919Z,18.10
2018-12-31T08:50:46.916Z,19.00
2018-12-31T08:53:15.877Z,17.77
2018-12-31T08:55:44.751Z,19.10
2018-12-31T08:58:13.640Z,18.10
2018-12-31T09:00:45.236Z,16.93
2018-12-31T09:03:22.796Z,15.27
2018-12-31T09:05:56.313Z,17.07
2018-12-31T09:08:25.677Z,15.80
2018-12-31T09:10:55.142Z,15.30
2018-12-31T09:13:24.635Z,15.03
2018-12-31T09:15:53.675Z,16.50
2018-12-31T09:18:22.816Z,15.17
2018-12-31T09:20:52.287Z,16.47
2018-12-31T09:23:21.621Z,15.83
2018-12-31T09:25:50.922Z,15.87
2018-12-31T09:28:20.008Z,16.03
2018-12-31T09:30:49.057Z,16.40
2018-12-31T09:33:18.119Z,16.30
2018-12-31T09:35:47.036Z,14.87
2018-12-31T09:38:16.209Z,15.33
2018-12-31T09:40:45.422Z,15.47
2018-12-31T09:43:14.532Z,16.93
2018-12-31T09:45:43.763Z,16.70
2018-12-31T09:48:12.967Z,14.70
2018-12-31T09:50:42.016Z,15.93
2018-12-31T09:53:12.579Z,16.80
2018-12-31T09:55:41.680Z,16.20
2018-12-31T09:58:10.868Z,15.53
2018-12-31T10:00:39.901Z,16.80
2018-12-31T10:03:08.873Z,17.10
2018-12-31T10:05:38.317Z,22.83
2018-12-31T10:08:07.267Z,22.67
2018-12-31T10:10:36.313Z,16.77
2018-12-31T10:13:05.343Z,16.00
2018-12-31T10:15:34.391Z,16.80
2018-12-31T10:18:03.507Z,15.77
2018-12-31T10:20:32.479Z,17.93
2018-12-31T10:23:01.524Z,15.90
2018-12-31T10:25:30.609Z,27.80
2018-12-31T10:27:59.852Z,19.57
2018-12-31T10:30:28.819Z,15.50
2018-12-31T10:32:57.773Z,14.10
2018-12-31T10:35:26.789Z,14.67
2018-12-31T10:37:55.828Z,15.70
2018-12-31T10:40:24.800Z,13.33
2018-12-31T10:42:53.785Z,15.17
2018-12-31T10:45:22.731Z,13.67
2018-12-31T10:47:51.662Z,30.23
2018-12-31T10:50:20.652Z,15.17
2018-12-31T10:52:49.641Z,34.53
2018-12-31T10:55:18.696Z,14.60
2018-12-31T10:57:47.797Z,23.27
2018-12-31T11:00:16.910Z,19.00
2018-12-31T11:02:45.921Z,17.77
2018-12-31T11:05:14.867Z,14.20
2018-12-31T11:07:43.923Z,12.27
2018-12-31T11:10:13.339Z,26.80
2018-12-31T11:12:42.375Z,26.40
2018-12-31T11:15:11.619Z,23.87
2018-12-31T11:17:40.834Z,25.20
2018-12-31T11:20:09.792Z,29.17
2018-12-31T11:22:38.919Z,26.70
2018-12-31T11:25:08.021Z,17.97
2018-12-31T11:27:37.358Z,16.47
2018-12-31T11:30:08.890Z,16.47
2018-12-31T11:32:38.242Z,12.60
2018-12-31T11:35:11.732Z,10.10
2018-12-31T11:37:44.961Z,8.50
2018-12-31T11:40:13.827Z,8.53
2018-12-31T11:42:43.260Z,9.27
2018-12-31T11:45:12.289Z,9.60
2018-12-31T11:47:42.249Z,10.70
2018-12-31T11:50:11.388Z,8.87
2018-12-31T11:52:53.710Z,14.07
2018-12-31T11:55:50.683Z,11.63
2018-12-31T11:58:22.388Z,9.17
2018-12-31T12:00:53.814Z,10.63
2018-12-31T12:03:22.903Z,10.40
2018-12-31T12:05:51.943Z,7.73
2018-12-31T12:08:21.254Z,8.10
2018-12-31T12:10:52.544Z,7.37
2018-12-31T12:13:24.840Z,7.93
2018-12-31T12:15:54.775Z,8.10
2018-12-31T12:18:23.796Z,8.57
2018-12-31T12:20:52.869Z,6.80
2018-12-31T12:23:22.276Z,8.27
2018-12-31T12:25:51.328Z,9.03
2018-12-31T12:28:20.532Z,8.73
2018-12-31T12:30:49.957Z,8.43
2018-12-31T12:33:19.245Z,12.80
2018-12-31T12:35:48.351Z,9.70
2018-12-31T12:38:17.896Z,7.23
2018-12-31T12:40:47.175Z,7.47
2018-12-31T12:43:16.534Z,10.20
2018-12-31T12:45:45.905Z,9.57
2018-12-31T12:48:17.108Z,8.40
2018-12-31T12:50:49.136Z,8.10
2018-12-31T12:53:18.275Z,9.70
2018-12-31T12:55:47.454Z,6.10
2018-12-31T12:58:20.327Z,4.80
2018-12-31T13:00:52.220Z,8.70
2018-12-31T13:03:21.435Z,17.80
2018-12-31T13:05:53.697Z,8.77
2018-12-31T13:08:23.034Z,11.50
2018-12-31T13:10:52.799Z,10.23
2018-12-31T13:13:22.027Z,9.13
2018-12-31T13:15:51.275Z,6.37
2018-12-31T13:18:20.285Z,7.07
2018-12-31T13:20:49.329Z,6.43
2018-12-31T13:23:18.489Z,6.27
2018-12-31T13:25:47.666Z,5.07
2018-12-31T13:28:20.873Z,6.87
2018-12-31T13:30:49.991Z,5.90
2018-12-31T13:33:20.995Z,4.73
2018-12-31T13:35:52.767Z,5.10
2018-12-31T13:38:22.911Z,6.10
2018-12-31T13:40:52.016Z,5.53
2018-12-31T13:43:21.317Z,5.50
2018-12-31T13:45:52.792Z,5.60
2018-12-31T13:48:26.069Z,5.50
2018-12-31T13:51:01.779Z,5.90
2018-12-31T13:53:32.307Z,5.53
2018-12-31T13:56:01.448Z,4.70
2018-12-31T13:58:32.550Z,4.93
2018-12-31T14:01:01.913Z,4.77
2018-12-31T14:03:34.222Z,5.80
2018-12-31T14:06:03.127Z,6.17
2018-12-31T14:08:32.591Z,6.57
2018-12-31T14:11:01.739Z,6.03
2018-12-31T14:13:33.365Z,7.20
2018-12-31T14:16:02.359Z,6.90
2018-12-31T14:18:31.676Z,5.70
2018-12-31T14:21:03.253Z,8.20
2018-12-31T14:23:37.188Z,7.37
2018-12-31T14:26:06.295Z,6.93
2018-12-31T14:28:35.831Z,6.50
2018-12-31T14:31:10.015Z,7.30
2018-12-31T14:33:39.155Z,8.70
2018-12-31T14:36:08.242Z,11.63
2018-12-31T14:38:38.924Z,9.30
2018-12-31T14:41:08.074Z,6.83
2018-12-31T14:43:39.206Z,7.27
2018-12-31T14:46:09.904Z,6.00
2018-12-31T14:48:45.086Z,6.90
2018-12-31T14:51:16.585Z,6.40
2018-12-31T14:53:45.893Z,6.93
2018-12-31T14:56:15.168Z,6.40
2018-12-31T14:58:44.660Z,6.70
2018-12-31T15:01:16.362Z,6.90
2018-12-31T15:03:45.576Z,7.20
2018-12-31T15:06:14.619Z,7.00
2018-12-31T15:08:43.779Z,7.93
2018-12-31T15:11:13.374Z,8.97
2018-12-31T15:13:42.614Z,8.30
2018-12-31T15:16:12.274Z,9.13
2018-12-31T15:18:41.788Z,9.00
2018-12-31T15:21:12.932Z,8.80
2018-12-31T15:23:43.962Z,9.00
2018-12-31T15:26:13.473Z,9.80
2018-12-31T15:28:44.594Z,9.20
2018-12-31T15:31:14.804Z,12.20
2018-12-31T15:33:43.745Z,9.80
2018-12-31T15:36:13.174Z,11.43
2018-12-31T15:38:42.379Z,10.10
2018-12-31T15:41:11.588Z,11.43
2018-12-31T15:43:40.902Z,11.20
2018-12-31T15:46:10.127Z,13.80
2018-12-31T15:48:39.382Z,15.07
2018-12-31T15:51:09.603Z,13.10
2018-12-31T15:53:39.113Z,20.40
2018-12-31T15:56:09.378Z,19.10
2018-12-31T15:58:38.972Z,12.13
2018-12-31T16:01:08.164Z,21.70
2018-12-31T16:03:37.752Z,49.87
2018-12-31T16:06:07.307Z,22.80
2018-12-31T16:08:37.265Z,112.97
2018-12-31T16:11:06.959Z,17.30
2018-12-31T16:13:36.551Z,17.17
2018-12-31T16:16:06.621Z,53.70
2018-12-31T16:18:36.023Z,14.07
2018-12-31T16:21:05.914Z,11.17
2018-12-31T16:23:35.390Z,10.60
2018-12-31T16:26:04.908Z,11.27
2018-12-31T16:28:34.619Z,11.33
2018-12-31T16:31:04.135Z,12.87
2018-12-31T16:33:33.500Z,17.63
2018-12-31T16:36:03.331Z,34.80
2018-12-31T16:38:32.638Z,33.30
2018-12-31T16:41:02.310Z,25.83
2018-12-31T16:43:31.724Z,35.33
2018-12-31T16:46:00.974Z,36.83
2018-12-31T16:48:30.221Z,41.50
2018-12-31T16:50:59.567Z,42.13
2018-12-31T16:53:28.763Z,56.70
2018-12-31T16:55:58.026Z,140.00
2018-12-31T16:58:27.456Z,52.57
2018-12-31T17:00:57.091Z,18.83
2018-12-31T17:03:28.773Z,16.47
2018-12-31T17:05:58.128Z,16.43
2018-12-31T17:08:30.049Z,24.13
2018-12-31T17:10:59.304Z,24.53
2018-12-31T17:13:28.551Z,26.63
2018-12-31T17:15:59.837Z,25.67
2018-12-31T17:18:28.917Z,15.60
2018-12-31T17:20:58.056Z,18.10
2018-12-31T17:23:27.255Z,15.47
2018-12-31T17:25:56.352Z,14.20
2018-12-31T17:28:25.445Z,15.77
2018-12-31T17:30:54.695Z,19.43
2018-12-31T17:33:23.817Z,18.77
2018-12-31T17:35:53.154Z,18.37
2018-12-31T17:38:22.557Z,18.93
2018-12-31T17:40:51.739Z,19.83
2018-12-31T17:43:20.866Z,18.63
2018-12-31T17:45:49.934Z,18.87
2018-12-31T17:48:19.536Z,16.33
2018-12-31T17:50:48.622Z,16.70
2018-12-31T17:53:17.764Z,19.70
2018-12-31T17:55:46.797Z,20.77
2018-12-31T17:58:15.849Z,20.00
2018-12-31T18:00:46.130Z,19.30
2018-12-31T18:03:14.967Z,19.70
2018-12-31T18:05:44.038Z,19.17
2018-12-31T18:08:13.177Z,18.83
2018-12-31T18:10:42.250Z,17.73
2018-12-31T18:13:11.258Z,19.10
2018-12-31T18:15:40.313Z,18.07
2018-12-31T18:18:09.519Z,18.13
2018-12-31T18:20:38.628Z,19.57
2018-12-31T18:23:07.680Z,19.27
2018-12-31T18:25:36.728Z,20.23
2018-12-31T18:28:05.787Z,20.07
2018-12-31T18:30:34.890Z,18.70
2018-12-31T18:33:03.915Z,26.40
2018-12-31T18:35:33.019Z,21.00
2018-12-31T18:38:02.052Z,17.40
2018-12-31T18:40:31.121Z,20.10
2018-12-31T18:43:00.194Z,20.87
2018-12-31T18:45:29.302Z,19.40
2018-12-31T18:47:58.349Z,18.40
2018-12-31T18:50:27.391Z,17.30
2018-12-31T18:52:56.338Z,15.97
2018-12-31T18:55:25.348Z,14.73
2018-12-31T18:57:54.300Z,14.37
2018-12-31T19:00:23.356Z,16.33
2018-12-31T19:02:52.391Z,15.90
2018-12-31T19:05:21.398Z,15.30
2018-12-31T19:07:50.424Z,14.60
2018-12-31T19:10:20.323Z,14.70
2018-12-31T19:12:49.569Z,13.33
2018-12-31T19:15:18.571Z,14.80
2018-12-31T19:17:47.483Z,13.77
2018-12-31T19:20:19.207Z,14.57
2018-12-31T19:22:48.319Z,14.87
2018-12-31T19:25:17.737Z,15.63
2018-12-31T19:27:47.230Z,16.47
2018-12-31T19:30:16.464Z,15.97
2018-12-31T19:32:45.481Z,16.03
2018-12-31T19:35:15.899Z,15.90
2018-12-31T19:37:44.980Z,17.80
2018-12-31T19:40:14.124Z,14.73
2018-12-31T19:42:43.298Z,15.90
2018-12-31T19:45:12.486Z,17.23
2018-12-31T19:47:41.459Z,16.97
2018-12-31T19:50:10.552Z,15.53
2018-12-31T19:52:39.972Z,16.30
2018-12-31T19:55:10.288Z,17.07
2018-12-31T19:57:39.404Z,26.47
2018-12-31T20:00:08.731Z,33.87
2018-12-31T20:02:38.105Z,51.50
2018-12-31T20:05:07.245Z,78.37
2018-12-31T20:07:36.519Z,60.07
2018-12-31T20:10:06.010Z,57.47
2018-12-31T20:12:35.112Z,30.23
2018-12-31T20:15:04.747Z,34.57
2018-12-31T20:17:34.038Z,59.53
2018-12-31T20:20:03.110Z,22.83
2018-12-31T20:22:32.302Z,22.60
2018-12-31T20:25:02.029Z,16.97
2018-12-31T20:27:31.094Z,16.23
2018-12-31T20:30:03.188Z,14.20
2018-12-31T20:32:32.354Z,16.90
2018-12-31T20:35:01.597Z,17.90
2018-12-31T20:37:31.845Z,17.67
2018-12-31T20:40:00.814Z,17.30
2018-12-31T20:42:29.946Z,16.93
2018-12-31T20:44:59.359Z,23.10
2018-12-31T20:47:28.440Z,18.27
2018-12-31T20:49:57.610Z,16.40
2018-12-31T20:52:26.934Z,17.13
2018-12-31T20:54:56.317Z,26.20
2018-12-31T20:57:26.089Z,17.63
2018-12-31T20:59:58.374Z,50.57
2018-12-31T21:02:28.019Z,38.10
2018-12-31T21:04:57.365Z,35.20
2018-12-31T21:07:26.875Z,31.30
2018-12-31T21:09:56.052Z,16.97
2018-12-31T21:12:25.304Z,21.83
2018-12-31T21:15:01.443Z,19.90
2018-12-31T21:17:30.438Z,31.97
2018-12-31T21:19:59.733Z,30.73
2018-12-31T21:22:28.920Z,40.70
2018-12-31T21:24:57.982Z,47.73
2018-12-31T21:27:27.280Z,39.73
2018-12-31T21:29:56.380Z,33.73
2018-12-31T21:32:25.480Z,30.77
2018-12-31T21:34:55.117Z,44.10
2018-12-31T21:37:24.328Z,44.73
2018-12-31T21:39:53.460Z,27.80
2018-12-31T21:42:22.755Z,18.30
2018-12-31T21:44:52.384Z,19.60
2018-12-31T21:47:21.514Z,18.60
2018-12-31T21:49:50.714Z,25.40
2018-12-31T21:52:19.997Z,18.50
2018-12-31T21:54:50.908Z,18.77
2018-12-31T21:57:25.131Z,19.90
2018-12-31T21:59:54.258Z,19.20
2018-12-31T22:02:27.077Z,21.13
2018-12-31T22:04:57.076Z,19.70
2018-12-31T22:07:26.118Z,18.90
2018-12-31T22:09:57.646Z,18.33
2018-12-31T22:12:26.859Z,18.40
2018-12-31T22:14:58.270Z,21.20
2018-12-31T22:17:28.122Z,20.00
2018-12-31T22:19:58.994Z,23.40
2018-12-31T22:22:29.486Z,21.33
2018-12-31T22:25:05.031Z,24.43
2018-12-31T22:27:34.543Z,22.50
2018-12-31T22:30:04.053Z,24.10
2018-12-31T22:32:46.984Z,29.37
2018-12-31T22:35:18.170Z,21.00
2018-12-31T22:37:50.629Z,20.87
2018-12-31T22:40:19.907Z,19.67
2018-12-31T22:42:48.989Z,19.27
2018-12-31T22:45:18.107Z,21.17
2018-12-31T22:47:47.575Z,22.37
2018-12-31T22:50:17.251Z,18.77
2018-12-31T22:52:46.949Z,20.57
2018-12-31T22:55:16.660Z,19.37
2018-12-31T22:57:46.137Z,21.13
2018-12-31T23:00:21.085Z,18.60
2018-12-31T23:02:50.270Z,567.53
2018-12-31T23:05:19.358Z,463.87
2018-12-31T23:07:49.986Z,753.10
2018-12-31T23:10:19.106Z,941.60
2018-12-31T23:12:48.327Z,696.00
2018-12-31T23:15:21.174Z,517.03
2018-12-31T23:17:50.519Z,420.97
2018-12-31T23:20:19.540Z,251.07
2018-12-31T23:22:48.544Z,219.17
2018-12-31T23:25:17.791Z,163.57
2018-12-31T23:27:46.843Z,109.40
2018-12-31T23:30:15.891Z,81.63
2018-12-31T23:32:45.251Z,144.07
2018-12-31T23:35:15.705Z,112.67
2018-12-31T23:37:48.085Z,136.77
2018-12-31T23:40:17.158Z,166.53
2018-12-31T23:42:46.997Z,186.90
2018-12-31T23:45:16.334Z,146.00
2018-12-31T23:47:53.293Z,136.37
2018-12-31T23:50:24.486Z,187.93
2018-12-31T23:52:55.787Z,159.90
2018-12-31T23:55:25.936Z,85.43
2018-12-31T23:58:02.925Z,61.93
